createdAt,value
2019-04-21T00:00:06.179Z,100178.92
2019-04-21T00:02:36.021Z,100178.78
2019-04-21T00:05:24.678Z,100179.45
2019-04-21T00:07:52.804Z,100178.13
2019-04-21T00:10:31.309Z,100172.36
2019-04-21T00:12:45.900Z,100169.66
2019-04-21T00:15:16.102Z,100172.21
2019-04-21T00:17:33.798Z,100166.81
2019-04-21T00:20:17.767Z,100164.08
2019-04-21T00:22:50.522Z,100165.70
2019-04-21T00:25:25.258Z,100159.92
2019-04-21T00:27:51.394Z,100155.03
2019-04-21T00:30:32.862Z,100160.25
2019-04-21T00:32:50.253Z,100158.34
2019-04-21T00:35:14.102Z,100147.30
2019-04-21T00:38:00.294Z,100148.95
2019-04-21T00:40:36.923Z,100155.00
2019-04-21T00:43:01.059Z,100147.57
2019-04-21T00:45:25.206Z,100148.87
2019-04-21T00:48:08.300Z,100146.74
2019-04-21T00:50:48.691Z,100144.08
2019-04-21T00:53:13.081Z,100136.23
2019-04-21T00:55:44.481Z,100137.44
2019-04-21T00:58:17.484Z,100141.75
2019-04-21T01:00:47.540Z,100141.19
2019-04-21T01:03:14.766Z,100141.93
2019-04-21T01:05:50.156Z,100146.08
2019-04-21T01:08:14.326Z,100145.50
2019-04-21T01:10:36.775Z,100142.19
2019-04-21T01:13:20.397Z,100144.64
2019-04-21T01:15:51.586Z,100141.48
2019-04-21T01:18:16.886Z,100135.45
2019-04-21T01:20:22.390Z,100141.41
2019-04-21T01:22:51.610Z,100137.42
2019-04-21T01:25:28.085Z,100138.49
2019-04-21T01:28:04.945Z,100132.17
2019-04-21T01:30:39.934Z,100132.91
2019-04-21T01:33:12.389Z,100130.65
2019-04-21T01:35:44.062Z,100127.53
2019-04-21T01:38:19.088Z,100128.30
2019-04-21T01:41:03.514Z,100125.47
2019-04-21T01:43:15.064Z,100125.34
2019-04-21T01:45:37.651Z,100117.42
2019-04-21T01:48:12.889Z,100116.11
2019-04-21T01:50:42.373Z,100113.48
2019-04-21T01:53:17.550Z,100107.42
2019-04-21T01:55:52.143Z,100108.42
2019-04-21T01:58:15.069Z,100108.78
2019-04-21T02:00:54.318Z,100104.68
2019-04-21T02:03:50.169Z,100101.43
2019-04-21T02:06:06.382Z,100109.61
2019-04-21T02:08:28.773Z,100104.78
2019-04-21T02:11:07.837Z,100106.53
2019-04-21T02:13:27.770Z,100105.05
2019-04-21T02:16:23.052Z,100101.92
2019-04-21T02:18:29.210Z,100096.55
2019-04-21T02:20:50.005Z,100094.78
2019-04-21T02:23:39.889Z,100097.31
2019-04-21T02:26:05.036Z,100096.41
2019-04-21T02:28:36.874Z,100095.83
2019-04-21T02:33:45.871Z,100091.47
2019-04-21T02:36:27.473Z,100086.85
2019-04-21T02:38:48.679Z,100091.55
2019-04-21T02:41:05.815Z,100089.38
2019-04-21T02:43:44.805Z,100086.95
2019-04-21T02:46:15.126Z,100082.08
2019-04-21T02:48:44.916Z,100080.42
2019-04-21T02:54:03.751Z,100073.84
2019-04-21T02:56:18.470Z,100075.38
2019-04-21T03:01:31.193Z,100064.13
2019-04-21T03:04:04.925Z,100062.72
2019-04-21T03:06:40.244Z,100052.95
2019-04-21T03:09:20.569Z,100056.29
2019-04-21T03:11:35.010Z,100048.69
2019-04-21T03:14:20.018Z,100045.56
2019-04-21T03:16:56.770Z,100045.42
2019-04-21T03:19:19.584Z,100039.12
2019-04-21T03:26:48.446Z,100040.13
2019-04-21T03:29:19.911Z,100035.96
2019-04-21T03:37:04.895Z,100033.59
2019-04-21T03:39:07.731Z,100037.27
2019-04-21T03:41:51.564Z,100033.73
2019-04-21T03:44:16.618Z,100026.14
2019-04-21T03:46:47.369Z,100022.56
2019-04-21T03:49:19.308Z,100027.73
2019-04-21T03:51:45.908Z,100018.92
2019-04-21T03:59:12.577Z,100020.93
2019-04-21T04:02:05.848Z,100016.00
2019-04-21T04:04:49.684Z,100013.67
2019-04-21T04:07:28.855Z,100011.86
2019-04-21T04:09:54.043Z,100009.14
2019-04-21T04:12:26.816Z,100005.11
2019-04-21T04:14:50.313Z,100004.20
2019-04-21T04:17:21.707Z,100008.42
2019-04-21T04:20:01.430Z,100000.47
2019-04-21T04:22:30.978Z,100001.27
2019-04-21T04:24:57.556Z,100007.80
2019-04-21T04:29:51.332Z,99999.27
2019-04-21T04:32:24.919Z,99999.02
2019-04-21T04:35:02.112Z,99996.92
2019-04-21T04:37:38.388Z,100000.94
2019-04-21T04:40:00.527Z,99996.02
2019-04-21T04:42:31.981Z,99998.58
2019-04-21T04:45:15.730Z,99999.38
2019-04-21T04:49:54.986Z,99995.48
2019-04-21T04:52:34.492Z,99995.70
2019-04-21T04:55:06.821Z,99993.89
2019-04-21T04:57:33.811Z,99992.53
2019-04-21T05:00:15.555Z,99995.03
2019-04-21T05:05:09.142Z,99996.67
2019-04-21T05:07:40.521Z,99999.34
2019-04-21T05:12:38.483Z,99996.18
2019-04-21T05:14:59.923Z,99993.21
2019-04-21T05:20:12.695Z,99995.59
2019-04-21T05:22:33.454Z,99997.81
2019-04-21T05:24:52.661Z,99997.91
2019-04-21T05:27:33.590Z,99994.78
2019-04-21T05:30:17.806Z,99997.02
2019-04-21T05:33:07.003Z,100001.17
2019-04-21T05:35:45.065Z,99992.23
2019-04-21T05:38:34.710Z,99988.79
2019-04-21T05:40:57.622Z,99987.77
2019-04-21T05:43:32.550Z,99989.34
2019-04-21T05:46:10.593Z,99985.64
2019-04-21T05:51:03.566Z,99982.71
2019-04-21T05:53:37.817Z,99985.87
2019-04-21T05:56:10.065Z,99981.55
2019-04-21T05:58:39.179Z,99986.73
2019-04-21T06:08:46.931Z,99982.94
2019-04-21T06:11:19.158Z,99979.28
2019-04-21T06:13:48.254Z,99979.17
2019-04-21T06:16:13.870Z,99971.59
2019-04-21T06:18:47.993Z,99975.41
2019-04-21T06:21:15.918Z,99976.34
2019-04-21T06:23:46.575Z,99971.16
2019-04-21T06:26:46.887Z,99965.56
2019-04-21T06:28:49.083Z,99959.45
2019-04-21T06:31:33.875Z,99960.79
2019-04-21T06:33:48.917Z,99955.55
2019-04-21T06:41:31.512Z,99953.45
2019-04-21T06:44:05.995Z,99955.64
2019-04-21T06:46:33.433Z,99955.16
2019-04-21T06:51:27.190Z,99948.80
2019-04-21T06:53:59.719Z,99945.65
2019-04-21T06:56:34.748Z,99945.13
2019-04-21T06:58:50.246Z,99948.93
2019-04-21T07:01:33.232Z,99943.07
2019-04-21T07:04:05.810Z,99945.92
2019-04-21T07:06:29.463Z,99948.00
2019-04-21T07:09:06.371Z,99942.66
2019-04-21T07:11:18.750Z,99938.75
2019-04-21T07:14:16.176Z,99935.47
2019-04-21T07:16:25.178Z,99933.09
2019-04-21T07:21:29.992Z,99935.55
2019-04-21T07:24:00.501Z,99934.36
2019-04-21T07:26:25.121Z,99927.78
2019-04-21T07:29:02.940Z,99924.48
2019-04-21T07:31:34.782Z,99924.97
2019-04-21T07:33:57.610Z,99919.07
2019-04-21T07:36:39.572Z,99915.48
2019-04-21T07:38:56.877Z,99917.76
2019-04-21T07:41:20.056Z,99918.87
2019-04-21T07:43:55.285Z,99917.58
2019-04-21T07:46:25.605Z,99911.11
2019-04-21T07:49:01.710Z,99907.20
2019-04-21T07:51:37.684Z,99901.78
2019-04-21T07:54:10.383Z,99895.90
2019-04-21T07:56:24.499Z,99891.77
2019-04-21T07:59:28.178Z,99895.57
2019-04-21T08:01:41.657Z,99894.03
2019-04-21T08:04:33.551Z,99891.50
2019-04-21T08:06:42.093Z,99893.77
2019-04-21T08:09:08.928Z,99881.75
2019-04-21T08:11:38.662Z,99889.88
2019-04-21T08:14:13.858Z,99887.78
2019-04-21T08:16:45.089Z,99882.45
2019-04-21T08:19:13.422Z,99879.36
2019-04-21T08:21:43.361Z,99880.64
2019-04-21T08:24:08.826Z,99879.08
2019-04-21T08:26:45.060Z,99877.73
2019-04-21T08:29:18.929Z,99875.41
2019-04-21T08:31:49.897Z,99869.63
2019-04-21T08:34:14.135Z,99871.08
2019-04-21T08:36:41.776Z,99868.67
2019-04-21T08:39:13.231Z,99866.81
2019-04-21T08:41:46.934Z,99860.56
2019-04-21T08:44:09.312Z,99858.36
2019-04-21T08:46:50.819Z,99859.06
2019-04-21T08:49:15.523Z,99855.72
2019-04-21T08:51:57.179Z,99856.14
2019-04-21T08:54:15.070Z,99856.41
2019-04-21T08:56:52.692Z,99853.43
2019-04-21T08:59:31.398Z,99851.53
2019-04-21T09:02:02.934Z,99846.75
2019-04-21T09:04:28.660Z,99838.95
2019-04-21T09:07:20.019Z,99838.12
2019-04-21T09:09:39.623Z,99833.79
2019-04-21T09:11:59.002Z,99827.13
2019-04-21T09:14:33.417Z,99821.09
2019-04-21T09:16:57.729Z,99820.19
2019-04-21T09:19:48.358Z,99819.30
2019-04-21T09:22:03.985Z,99814.59
2019-04-21T09:24:33.032Z,99813.78
2019-04-21T09:27:02.103Z,99807.97
2019-04-21T09:29:20.571Z,99810.61
2019-04-21T09:31:46.805Z,99805.44
2019-04-21T09:34:22.387Z,99800.66
2019-04-21T09:36:50.225Z,99802.91
2019-04-21T09:39:20.098Z,99794.31
2019-04-21T09:41:50.674Z,99792.17
2019-04-21T09:44:23.686Z,99783.51
2019-04-21T09:46:51.920Z,99783.67
2019-04-21T09:49:22.476Z,99778.50
2019-04-21T09:51:48.202Z,99775.59
2019-04-21T09:54:22.898Z,99772.77
2019-04-21T09:56:54.028Z,99768.14
2019-04-21T09:59:23.585Z,99756.89
2019-04-21T10:02:01.846Z,99756.06
2019-04-21T10:04:18.657Z,99751.95
2019-04-21T10:06:47.611Z,99753.47
2019-04-21T10:09:19.427Z,99755.22
2019-04-21T10:11:46.310Z,99751.82
2019-04-21T10:14:14.731Z,99743.19
2019-04-21T10:16:56.756Z,99740.80
2019-04-21T10:19:25.452Z,99747.20
2019-04-21T10:21:56.545Z,99735.15
2019-04-21T10:24:26.402Z,99732.84
2019-04-21T10:26:55.421Z,99730.47
2019-04-21T10:29:26.528Z,99730.78
2019-04-21T10:31:54.572Z,99731.65
2019-04-21T10:34:23.143Z,99730.98
2019-04-21T10:36:51.682Z,99720.16
2019-04-21T10:39:20.116Z,99713.05
2019-04-21T10:41:48.539Z,99712.59
2019-04-21T10:44:17.132Z,99702.76
2019-04-21T10:46:48.471Z,99707.52
2019-04-21T10:49:16.917Z,99701.80
2019-04-21T10:51:46.647Z,99701.95
2019-04-21T10:54:15.826Z,99695.23
2019-04-21T10:56:45.790Z,99691.20
2019-04-21T10:59:16.324Z,99680.82
2019-04-21T11:01:45.312Z,99679.92
2019-04-21T11:04:21.861Z,99670.61
2019-04-21T11:06:46.420Z,99665.61
2019-04-21T11:09:15.864Z,99658.71
2019-04-21T11:11:47.822Z,99659.00
2019-04-21T11:14:15.456Z,99659.31
2019-04-21T11:16:47.238Z,99658.78
2019-04-21T11:19:16.088Z,99646.58
2019-04-21T11:21:44.934Z,99650.47
2019-04-21T11:24:14.319Z,99641.23
2019-04-21T11:26:42.813Z,99635.84
2019-04-21T11:29:12.741Z,99635.42
2019-04-21T11:31:43.013Z,99635.34
2019-04-21T11:34:11.563Z,99627.66
2019-04-21T11:36:40.456Z,99630.27
2019-04-21T11:39:35.528Z,99629.50
2019-04-21T11:41:53.957Z,99625.92
2019-04-21T11:44:24.650Z,99617.38
2019-04-21T11:46:54.285Z,99613.12
2019-04-21T11:49:24.146Z,99605.36
2019-04-21T11:51:53.239Z,99605.63
2019-04-21T11:54:22.584Z,99608.79
2019-04-21T11:56:51.107Z,99599.95
2019-04-21T11:59:19.694Z,99612.28
2019-04-21T12:01:48.147Z,99595.75
2019-04-21T12:04:17.894Z,99593.98
2019-04-21T12:06:49.049Z,99589.85
2019-04-21T12:09:17.048Z,99587.86
2019-04-21T12:11:45.527Z,99580.38
2019-04-21T12:14:14.263Z,99582.15
2019-04-21T12:16:43.291Z,99573.47
2019-04-21T12:19:12.724Z,99578.25
2019-04-21T12:21:55.483Z,99576.38
2019-04-21T12:24:11.297Z,99570.19
2019-04-21T12:26:40.147Z,99565.09
2019-04-21T12:29:09.975Z,99557.98
2019-04-21T12:31:41.283Z,99555.06
2019-04-21T12:34:12.029Z,99551.25
2019-04-21T12:36:42.073Z,99551.63
2019-04-21T12:39:12.840Z,99554.09
2019-04-21T12:41:42.609Z,99539.66
2019-04-21T12:44:11.149Z,99544.66
2019-04-21T12:46:40.127Z,99544.01
2019-04-21T12:49:09.750Z,99538.78
2019-04-21T12:51:39.665Z,99530.63
2019-04-21T12:54:09.744Z,99530.25
2019-04-21T12:56:38.370Z,99530.23
2019-04-21T12:59:07.902Z,99528.58
2019-04-21T13:01:37.030Z,99525.31
2019-04-21T13:04:05.869Z,99516.78
2019-04-21T13:06:34.374Z,99522.17
2019-04-21T13:09:07.018Z,99509.83
2019-04-21T13:11:34.979Z,99513.81
2019-04-21T13:14:04.076Z,99510.95
2019-04-21T13:16:33.654Z,99500.02
2019-04-21T13:19:02.999Z,99503.76
2019-04-21T13:21:31.971Z,99499.59
2019-04-21T13:24:00.976Z,99493.95
2019-04-21T13:26:37.328Z,99485.33
2019-04-21T13:29:00.561Z,99479.03
2019-04-21T13:31:30.005Z,99475.67
2019-04-21T13:33:59.835Z,99483.63
2019-04-21T13:36:29.647Z,99477.27
2019-04-21T13:39:48.732Z,99470.87
2019-04-21T13:41:59.887Z,99474.36
2019-04-21T13:44:19.652Z,99458.67
2019-04-21T13:46:49.234Z,99461.47
2019-04-21T13:49:19.240Z,99463.73
2019-04-21T13:51:48.088Z,99458.23
2019-04-21T13:54:17.871Z,99441.64
2019-04-21T13:56:46.945Z,99431.66
2019-04-21T13:59:18.311Z,99431.80
2019-04-21T14:01:47.784Z,99432.39
2019-04-21T14:04:17.702Z,99428.36
2019-04-21T14:06:46.259Z,99428.36
2019-04-21T14:09:17.728Z,99412.61
2019-04-21T14:11:45.261Z,99423.97
2019-04-21T14:14:14.442Z,99427.81
2019-04-21T14:16:44.135Z,99415.70
2019-04-21T14:19:13.255Z,99401.31
2019-04-21T14:21:41.744Z,99408.97
2019-04-21T14:24:10.898Z,99402.66
2019-04-21T14:26:40.409Z,99400.73
2019-04-21T14:29:09.890Z,99402.66
2019-04-21T14:31:40.199Z,99397.44
2019-04-21T14:34:09.951Z,99394.30
2019-04-21T14:36:38.966Z,99393.45
2019-04-21T14:39:10.587Z,99393.40
2019-04-21T14:41:40.331Z,99384.94
2019-04-21T14:44:09.158Z,99379.14
2019-04-21T14:46:49.156Z,99382.50
2019-04-21T14:49:41.546Z,99373.33
2019-04-21T14:52:12.924Z,99373.33
2019-04-21T14:54:46.915Z,99370.30
2019-04-21T14:57:15.642Z,99366.86
2019-04-21T14:59:44.862Z,99368.79
2019-04-21T15:02:14.053Z,99360.30
2019-04-21T15:04:43.933Z,99357.88
2019-04-21T15:07:12.990Z,99345.16
2019-04-21T15:09:43.269Z,99354.67
2019-04-21T15:12:11.947Z,99350.22
2019-04-21T15:14:40.388Z,99354.55
2019-04-21T15:17:09.099Z,99348.28
2019-04-21T15:19:38.371Z,99341.97
2019-04-21T15:22:08.091Z,99339.41
2019-04-21T15:24:36.673Z,99332.75
2019-04-21T15:27:07.081Z,99342.01
2019-04-21T15:29:35.571Z,99336.63
2019-04-21T15:32:04.394Z,99328.78
2019-04-21T15:34:34.014Z,99323.83
2019-04-21T15:37:04.008Z,99328.65
2019-04-21T15:39:33.921Z,99321.88
2019-04-21T15:42:02.810Z,99317.80
2019-04-21T15:44:32.500Z,99321.41
2019-04-21T15:47:02.018Z,99307.88
2019-04-21T15:49:40.546Z,99311.08
2019-04-21T15:52:02.391Z,99313.09
2019-04-21T15:54:32.277Z,99299.64
2019-04-21T15:57:05.172Z,99305.02
2019-04-21T15:59:37.995Z,99311.89
2019-04-21T16:02:24.664Z,99313.17
2019-04-21T16:04:53.077Z,99313.17
2019-04-21T16:07:22.349Z,99311.88
2019-04-21T16:09:52.257Z,99307.87
2019-04-21T16:12:22.042Z,99303.91
2019-04-21T16:14:50.642Z,99299.58
2019-04-21T16:17:19.310Z,99297.70
2019-04-21T16:19:48.068Z,99296.14
2019-04-21T16:22:16.830Z,99290.63
2019-04-21T16:24:46.282Z,99286.59
2019-04-21T16:27:15.494Z,99278.61
2019-04-21T16:29:43.940Z,99274.35
2019-04-21T16:32:15.662Z,99273.17
2019-04-21T16:34:50.142Z,99271.91
2019-04-21T16:37:13.896Z,99272.56
2019-04-21T16:39:43.325Z,99267.59
2019-04-21T16:42:12.267Z,99263.09
2019-04-21T16:44:40.993Z,99261.53
2019-04-21T16:47:09.755Z,99268.02
2019-04-21T16:49:38.215Z,99258.53
2019-04-21T16:52:14.190Z,99256.31
2019-04-21T16:54:44.220Z,99250.55
2019-04-21T16:57:23.864Z,99257.81
2019-04-21T16:59:54.812Z,99250.27
2019-04-21T17:02:24.753Z,99242.52
2019-04-21T17:04:54.162Z,99247.75
2019-04-21T17:07:24.055Z,99245.84
2019-04-21T17:09:52.837Z,99244.98
2019-04-21T17:12:22.762Z,99244.27
2019-04-21T17:15:07.997Z,99239.55
2019-04-21T17:17:48.426Z,99234.95
2019-04-21T17:19:54.722Z,99235.29
2019-04-21T17:22:23.716Z,99239.17
2019-04-21T17:24:52.633Z,99230.25
2019-04-21T17:27:21.147Z,99230.25
2019-04-21T17:29:50.643Z,99228.26
2019-04-21T17:32:20.548Z,99229.60
2019-04-21T17:34:50.005Z,99225.59
2019-04-21T17:37:20.637Z,99218.52
2019-04-21T17:39:49.231Z,99218.52
2019-04-21T17:42:26.480Z,99217.40
2019-04-21T17:44:47.803Z,99224.44
2019-04-21T17:47:27.079Z,99216.75
2019-04-21T17:49:50.852Z,99217.60
2019-04-21T17:52:43.763Z,99213.55
2019-04-21T17:55:19.954Z,99220.61
2019-04-21T17:57:57.057Z,99224.66
2019-04-21T18:01:02.701Z,99222.43
2019-04-21T18:03:07.646Z,99216.80
2019-04-21T18:05:34.660Z,99222.62
2019-04-21T18:08:02.614Z,99216.08
2019-04-21T18:10:31.624Z,99220.12
2019-04-21T18:12:56.986Z,99227.77
2019-04-21T18:15:38.308Z,99222.06
2019-04-21T18:17:50.297Z,99229.93
2019-04-21T18:20:21.862Z,99230.56
2019-04-21T18:23:09.620Z,99237.28
2019-04-21T18:25:46.477Z,99235.50
2019-04-21T18:28:04.982Z,99237.54
2019-04-21T18:30:49.602Z,99235.61
2019-04-21T18:33:25.033Z,99238.52
2019-04-21T18:36:04.639Z,99245.92
2019-04-21T18:39:12.119Z,99243.58
2019-04-21T18:41:23.672Z,99242.31
2019-04-21T18:44:23.423Z,99237.59
2019-04-21T18:46:56.766Z,99245.16
2019-04-21T18:49:04.578Z,99242.05
2019-04-21T18:52:02.219Z,99240.59
2019-04-21T18:54:47.171Z,99251.16
2019-04-21T18:57:07.888Z,99254.37
2019-04-21T18:59:34.522Z,99256.28
2019-04-21T19:02:04.228Z,99250.62
2019-04-21T19:04:30.049Z,99251.55
2019-04-21T19:07:15.546Z,99251.16
2019-04-21T19:12:24.026Z,99254.03
2019-04-21T19:14:58.072Z,99255.55
2019-04-21T19:18:05.498Z,99257.12
2019-04-21T19:22:15.727Z,99267.17
2019-04-21T19:24:48.925Z,99261.80
2019-04-21T19:27:22.623Z,99262.91
2019-04-21T19:29:58.283Z,99262.27
2019-04-21T19:32:21.529Z,99265.64
2019-04-21T19:34:34.736Z,99264.55
2019-04-21T19:37:08.925Z,99264.36
2019-04-21T19:39:42.767Z,99262.41
2019-04-21T19:42:12.807Z,99258.28
2019-04-21T19:44:47.036Z,99260.19
2019-04-21T19:47:20.848Z,99257.28
2019-04-21T19:49:55.067Z,99257.02
2019-04-21T19:52:06.547Z,99260.67
2019-04-21T19:54:37.959Z,99260.88
2019-04-21T19:57:02.877Z,99259.69
2019-04-21T19:59:38.572Z,99259.85
2019-04-21T20:02:02.547Z,99254.70
2019-04-21T20:04:38.538Z,99261.47
2019-04-21T20:07:19.214Z,99259.00
2019-04-21T20:09:45.068Z,99255.20
2019-04-21T20:12:27.114Z,99254.47
2019-04-21T20:14:57.736Z,99253.23
2019-04-21T20:17:14.942Z,99247.17
2019-04-21T20:19:32.179Z,99256.15
2019-04-21T20:22:00.899Z,99250.13
2019-04-21T20:24:32.417Z,99252.89
2019-04-21T20:27:07.956Z,99254.33
2019-04-21T20:29:54.407Z,99255.78
2019-04-21T20:32:26.104Z,99251.89
2019-04-21T20:34:56.562Z,99248.47
2019-04-21T20:37:20.727Z,99249.91
2019-04-21T20:39:45.594Z,99251.70
2019-04-21T20:42:19.805Z,99253.63
2019-04-21T20:44:53.023Z,99250.60
2019-04-21T20:47:17.112Z,99248.47
2019-04-21T20:49:41.775Z,99244.11
2019-04-21T20:52:24.407Z,99240.66
2019-04-21T20:54:48.099Z,99239.81
2019-04-21T20:57:18.965Z,99245.19
2019-04-21T20:59:44.027Z,99247.03
2019-04-21T21:02:20.104Z,99243.59
2019-04-21T21:04:45.370Z,99242.76
2019-04-21T21:07:36.701Z,99243.71
2019-04-21T21:09:57.715Z,99235.45
2019-04-21T21:12:34.288Z,99235.06
2019-04-21T21:14:45.824Z,99233.80
2019-04-21T21:17:34.261Z,99235.55
2019-04-21T21:19:55.132Z,99233.38
2019-04-21T21:22:14.687Z,99236.05
2019-04-21T21:24:53.233Z,99236.52
2019-04-21T21:27:19.717Z,99234.32
2019-04-21T21:29:49.913Z,99236.11
2019-04-21T21:32:20.768Z,99231.73
2019-04-21T21:34:53.520Z,99235.70
2019-04-21T21:37:34.770Z,99232.22
2019-04-21T21:39:58.308Z,99237.93
2019-04-21T21:42:08.079Z,99234.02
2019-04-21T21:44:40.779Z,99233.59
2019-04-21T21:47:22.647Z,99233.16
2019-04-21T21:49:52.826Z,99230.53
2019-04-21T21:52:16.638Z,99230.09
2019-04-21T21:54:37.952Z,99231.87
2019-04-21T21:57:06.393Z,99223.99
2019-04-21T21:59:38.110Z,99225.77
2019-04-21T22:02:09.568Z,99217.42
2019-04-21T22:04:38.918Z,99216.97
2019-04-21T22:07:09.722Z,99224.86
2019-04-21T22:09:36.526Z,99216.09
2019-04-21T22:12:07.171Z,99216.11
2019-04-21T22:14:41.577Z,99211.27
2019-04-21T22:17:24.750Z,99207.31
2019-04-21T22:20:01.887Z,99211.72
2019-04-21T22:22:20.733Z,99206.88
2019-04-21T22:24:50.862Z,99206.02
2019-04-21T22:27:07.371Z,99206.89
2019-04-21T22:29:41.854Z,99208.63
2019-04-21T22:32:10.267Z,99207.31
2019-04-21T22:34:45.047Z,99207.77
2019-04-21T22:37:21.674Z,99205.58
2019-04-21T22:39:54.338Z,99209.48
2019-04-21T22:42:15.746Z,99207.75
2019-04-21T22:44:38.495Z,99209.92
2019-04-21T22:47:16.805Z,99205.50
2019-04-21T22:49:38.704Z,99204.16
2019-04-21T22:52:13.525Z,99200.22
2019-04-21T22:54:41.263Z,99197.56
2019-04-21T22:57:14.857Z,99203.25
2019-04-21T22:59:38.157Z,99193.59
2019-04-21T23:02:15.218Z,99198.42
2019-04-21T23:04:43.846Z,99194.03
2019-04-21T23:07:10.226Z,99198.31
2019-04-21T23:09:37.262Z,99188.22
2019-04-21T23:12:05.721Z,99193.45
2019-04-21T23:14:45.280Z,99190.41
2019-04-21T23:17:26.656Z,99186.44
2019-04-21T23:19:46.261Z,99192.58
2019-04-21T23:22:24.909Z,99182.50
2019-04-21T23:24:59.354Z,99185.53
2019-04-21T23:27:15.489Z,99185.98
2019-04-21T23:29:58.887Z,99182.02
2019-04-21T23:32:20.942Z,99178.95
2019-04-21T23:34:38.920Z,99178.03
2019-04-21T23:37:14.089Z,99175.84
2019-04-21T23:39:37.533Z,99171.88
2019-04-21T23:42:06.434Z,99175.36
2019-04-21T23:44:41.496Z,99170.94
2019-04-21T23:47:10.004Z,99171.81
2019-04-21T23:49:49.590Z,99165.19
2019-04-21T23:52:10.181Z,99162.08
2019-04-21T23:54:37.485Z,99158.98
2019-04-21T23:57:14.089Z,99160.71
2019-04-21T23:59:42.384Z,99157.64
